createdAt,value
2018-06-22T00:00:24.203Z,11.00
2018-06-22T00:02:53.679Z,10.07
2018-06-22T00:05:23.281Z,19.17
2018-06-22T00:07:52.628Z,17.97
2018-06-22T00:10:22.030Z,10.23
2018-06-22T00:12:51.436Z,18.20
2018-06-22T00:15:20.846Z,11.30
2018-06-22T00:17:50.292Z,12.23
2018-06-22T00:20:19.702Z,11.47
2018-06-22T00:22:49.230Z,7.17
2018-06-22T00:25:18.833Z,12.60
2018-06-22T00:27:48.188Z,14.50
2018-06-22T00:30:17.541Z,13.83
2018-06-22T00:32:47.112Z,9.60
2018-06-22T00:35:16.593Z,12.90
2018-06-22T00:37:45.963Z,10.97
2018-06-22T00:40:15.977Z,11.80
2018-06-22T00:42:45.526Z,12.07
2018-06-22T00:45:14.879Z,21.70
2018-06-22T00:47:44.308Z,9.30
2018-06-22T00:50:13.634Z,12.40
2018-06-22T00:52:43.136Z,20.43
2018-06-22T00:55:12.469Z,11.00
2018-06-22T00:57:42.091Z,16.97
2018-06-22T01:00:11.461Z,19.17
2018-06-22T01:02:41.008Z,16.70
2018-06-22T01:05:10.381Z,13.80
2018-06-22T01:07:39.751Z,9.07
2018-06-22T01:10:09.138Z,11.67
2018-06-22T01:12:38.459Z,14.20
2018-06-22T01:15:07.994Z,11.43
2018-06-22T01:17:37.344Z,18.17
2018-06-22T01:20:07.024Z,16.60
2018-06-22T01:22:36.459Z,22.40
2018-06-22T01:25:05.826Z,9.83
2018-06-22T01:27:35.324Z,14.03
2018-06-22T01:30:04.755Z,13.57
2018-06-22T01:32:34.135Z,7.20
2018-06-22T01:35:03.667Z,26.67
2018-06-22T01:37:33.110Z,9.93
2018-06-22T01:40:02.547Z,19.07
2018-06-22T01:42:31.956Z,13.07
2018-06-22T01:45:01.367Z,11.83
2018-06-22T01:47:30.723Z,12.40
2018-06-22T01:50:00.099Z,11.50
2018-06-22T01:52:29.497Z,7.93
2018-06-22T01:54:58.952Z,13.90
2018-06-22T01:57:28.512Z,13.50
2018-06-22T01:59:58.044Z,13.17
2018-06-22T02:04:55.255Z,15.73
2018-06-22T02:07:24.805Z,7.33
2018-06-22T02:09:54.172Z,20.83
2018-06-22T02:12:23.481Z,12.93
2018-06-22T02:14:52.874Z,21.53
2018-06-22T02:17:22.213Z,14.40
2018-06-22T02:19:51.505Z,10.77
2018-06-22T02:22:20.850Z,14.73
2018-06-22T02:24:50.102Z,15.43
2018-06-22T02:27:19.506Z,16.60
2018-06-22T02:29:48.854Z,10.17
2018-06-22T02:32:18.156Z,17.70
2018-06-22T02:34:47.663Z,19.57
2018-06-22T02:37:16.954Z,21.33
2018-06-22T02:39:46.229Z,13.20
2018-06-22T02:42:15.499Z,20.43
2018-06-22T02:44:44.832Z,21.47
2018-06-22T02:47:14.106Z,16.17
2018-06-22T02:49:43.375Z,20.17
2018-06-22T02:52:12.651Z,16.40
2018-06-22T02:54:41.950Z,20.90
2018-06-22T02:57:11.303Z,17.27
2018-06-22T02:59:40.603Z,15.00
2018-06-22T03:02:09.866Z,13.83
2018-06-22T03:04:39.225Z,22.53
2018-06-22T03:07:08.590Z,14.00
2018-06-22T03:09:37.847Z,14.77
2018-06-22T03:12:07.172Z,22.37
2018-06-22T03:14:36.442Z,19.63
2018-06-22T03:17:05.705Z,17.50
2018-06-22T03:19:35.014Z,21.10
2018-06-22T03:22:04.337Z,17.40
2018-06-22T03:24:33.673Z,14.20
2018-06-22T03:27:02.949Z,18.43
2018-06-22T03:29:32.221Z,17.60
2018-06-22T03:32:01.505Z,21.83
2018-06-22T03:34:30.773Z,24.93
2018-06-22T03:37:00.164Z,26.57
2018-06-22T03:39:32.380Z,19.00
2018-06-22T03:42:01.793Z,17.67
2018-06-22T03:44:31.086Z,22.87
2018-06-22T03:47:00.423Z,16.43
2018-06-22T03:49:29.698Z,16.03
2018-06-22T03:51:58.965Z,16.00
2018-06-22T03:54:28.319Z,12.70
2018-06-22T03:56:57.583Z,12.57
2018-06-22T03:59:26.917Z,11.80
2018-06-22T04:01:56.222Z,15.73
2018-06-22T04:04:25.572Z,17.33
2018-06-22T04:06:54.955Z,14.40
2018-06-22T04:09:24.234Z,13.03
2018-06-22T04:11:53.512Z,16.10
2018-06-22T04:14:22.798Z,11.23
2018-06-22T04:16:52.133Z,8.97
2018-06-22T04:19:21.413Z,12.53
2018-06-22T04:21:50.713Z,11.47
2018-06-22T04:24:20.018Z,13.13
2018-06-22T04:26:49.370Z,9.93
2018-06-22T04:29:19.617Z,9.67
2018-06-22T04:31:48.879Z,9.90
2018-06-22T04:34:18.162Z,8.17
2018-06-22T04:36:48.457Z,7.07
2018-06-22T04:39:17.781Z,12.53
2018-06-22T04:41:47.098Z,10.00
2018-06-22T04:44:16.390Z,14.80
2018-06-22T04:46:45.721Z,8.47
2018-06-22T04:49:14.993Z,11.67
2018-06-22T04:51:44.309Z,15.50
2018-06-22T04:54:13.601Z,17.27
2018-06-22T04:56:42.932Z,11.73
2018-06-22T04:59:12.202Z,22.03
2018-06-22T05:01:41.481Z,17.53
2018-06-22T05:04:10.841Z,26.50
2018-06-22T05:06:40.114Z,21.20
2018-06-22T05:09:09.433Z,19.93
2018-06-22T05:11:38.720Z,21.53
2018-06-22T05:14:08.010Z,28.43
2018-06-22T05:16:37.302Z,26.23
2018-06-22T05:19:06.599Z,32.93
2018-06-22T05:21:36.005Z,28.00
2018-06-22T05:24:05.317Z,34.37
2018-06-22T05:26:34.588Z,16.90
2018-06-22T05:29:03.920Z,27.60
2018-06-22T05:31:33.271Z,30.93
2018-06-22T05:34:02.552Z,18.40
2018-06-22T05:36:31.837Z,18.47
2018-06-22T05:39:01.165Z,20.57
2018-06-22T05:41:30.550Z,32.47
2018-06-22T05:43:59.762Z,32.10
2018-06-22T05:46:29.043Z,16.10
2018-06-22T05:48:58.348Z,33.63
2018-06-22T05:51:27.854Z,13.20
2018-06-22T05:53:57.013Z,15.13
2018-06-22T05:56:26.391Z,19.57
2018-06-22T05:58:55.721Z,14.00
2018-06-22T06:01:25.010Z,16.73
2018-06-22T06:03:54.337Z,17.00
2018-06-22T06:06:23.681Z,18.53
2018-06-22T06:08:52.999Z,20.33
2018-06-22T06:11:22.446Z,20.50
2018-06-22T06:13:51.716Z,20.60
2018-06-22T06:16:20.997Z,15.83
2018-06-22T06:18:50.281Z,15.80
2018-06-22T06:21:19.609Z,12.23
2018-06-22T06:23:48.873Z,13.40
2018-06-22T06:26:18.158Z,13.10
2018-06-22T06:28:48.289Z,19.77
2018-06-22T06:31:17.618Z,9.20
2018-06-22T06:33:46.890Z,16.43
2018-06-22T06:36:16.216Z,10.60
2018-06-22T06:38:45.494Z,14.07
2018-06-22T06:41:14.897Z,17.80
2018-06-22T06:43:44.227Z,16.27
2018-06-22T06:46:13.509Z,14.73
2018-06-22T06:48:42.793Z,16.40
2018-06-22T06:51:12.076Z,12.83
2018-06-22T06:53:41.494Z,12.13
2018-06-22T06:56:10.923Z,8.37
2018-06-22T06:58:40.219Z,11.17
2018-06-22T07:01:09.494Z,11.80
2018-06-22T07:03:38.773Z,11.33
2018-06-22T07:06:08.117Z,15.73
2018-06-22T07:08:37.406Z,10.87
2018-06-22T07:11:06.700Z,8.97
2018-06-22T07:13:36.012Z,7.27
2018-06-22T07:16:05.332Z,9.40
2018-06-22T07:18:34.637Z,15.70
2018-06-22T07:21:03.965Z,5.63
2018-06-22T07:23:33.339Z,11.90
2018-06-22T07:26:02.641Z,12.73
2018-06-22T07:28:31.926Z,7.70
2018-06-22T07:31:01.300Z,6.00
2018-06-22T07:33:30.571Z,7.40
2018-06-22T07:35:59.851Z,5.23
2018-06-22T07:38:29.205Z,4.90
2018-06-22T07:40:58.465Z,6.30
2018-06-22T07:43:27.730Z,7.20
2018-06-22T07:45:57.036Z,7.23
2018-06-22T07:48:26.293Z,6.30
2018-06-22T07:50:55.614Z,9.23
2018-06-22T07:53:24.874Z,4.93
2018-06-22T07:55:54.155Z,7.40
2018-06-22T07:58:23.508Z,12.97
2018-06-22T08:00:52.783Z,6.60
2018-06-22T08:03:22.124Z,9.53
2018-06-22T08:05:51.413Z,9.37
2018-06-22T08:08:20.687Z,9.37
2018-06-22T08:10:49.973Z,11.00
2018-06-22T08:13:19.253Z,10.33
2018-06-22T08:15:48.613Z,9.03
2018-06-22T08:18:17.878Z,6.00
2018-06-22T08:20:47.130Z,4.57
2018-06-22T08:23:16.490Z,6.70
2018-06-22T08:25:45.757Z,12.40
2018-06-22T08:28:15.107Z,9.83
2018-06-22T08:30:44.375Z,10.63
2018-06-22T08:33:13.637Z,13.07
2018-06-22T08:35:42.934Z,11.30
2018-06-22T08:38:12.222Z,13.10
2018-06-22T08:40:41.553Z,8.63
2018-06-22T08:43:10.843Z,10.07
2018-06-22T08:45:40.144Z,8.00
2018-06-22T08:48:09.448Z,8.13
2018-06-22T08:50:38.732Z,11.70
2018-06-22T08:53:08.069Z,13.23
2018-06-22T08:55:37.383Z,9.37
2018-06-22T08:58:06.705Z,9.70
2018-06-22T09:00:35.958Z,12.80
2018-06-22T09:03:05.230Z,10.87
2018-06-22T09:05:34.581Z,7.43
2018-06-22T09:08:04.036Z,11.23
2018-06-22T09:10:33.310Z,8.23
2018-06-22T09:13:02.606Z,15.23
2018-06-22T09:15:31.939Z,6.00
2018-06-22T09:18:01.362Z,17.70
2018-06-22T09:20:30.669Z,13.73
2018-06-22T09:22:59.961Z,9.53
2018-06-22T09:25:29.259Z,13.20
2018-06-22T09:27:58.770Z,12.83
2018-06-22T09:30:28.086Z,8.67
2018-06-22T09:32:57.456Z,12.43
2018-06-22T09:35:26.764Z,11.80
2018-06-22T09:37:56.065Z,14.70
2018-06-22T09:40:25.443Z,18.50
2018-06-22T09:42:54.783Z,12.63
2018-06-22T09:45:24.034Z,11.60
2018-06-22T09:47:53.313Z,8.07
2018-06-22T09:50:22.591Z,12.07
2018-06-22T09:52:51.866Z,13.70
2018-06-22T09:55:21.185Z,17.80
2018-06-22T09:57:50.457Z,10.43
2018-06-22T10:00:19.873Z,11.50
2018-06-22T10:02:49.549Z,18.47
2018-06-22T10:05:19.055Z,10.10
2018-06-22T10:07:48.347Z,19.97
2018-06-22T10:10:17.694Z,14.10
2018-06-22T10:12:47.019Z,12.43
2018-06-22T10:15:16.388Z,17.80
2018-06-22T10:17:45.746Z,11.40
2018-06-22T10:20:15.233Z,16.70
2018-06-22T10:22:48.206Z,17.97
2018-06-22T10:25:19.475Z,10.03
2018-06-22T10:27:49.219Z,15.07
2018-06-22T10:30:18.499Z,8.23
2018-06-22T10:32:47.778Z,11.73
2018-06-22T10:35:17.059Z,9.70
2018-06-22T10:37:46.333Z,7.50
2018-06-22T10:40:15.713Z,7.70
2018-06-22T10:42:44.979Z,7.60
2018-06-22T10:45:14.346Z,14.93
2018-06-22T10:47:43.633Z,11.87
2018-06-22T10:50:12.917Z,5.43
2018-06-22T10:52:42.470Z,7.23
2018-06-22T10:55:11.669Z,8.60
2018-06-22T10:57:40.951Z,9.50
2018-06-22T11:00:10.238Z,10.10
2018-06-22T11:02:39.517Z,4.93
2018-06-22T11:05:08.891Z,9.07
2018-06-22T11:07:38.259Z,7.13
2018-06-22T11:10:07.614Z,8.80
2018-06-22T11:12:36.916Z,9.43
2018-06-22T11:15:06.214Z,9.30
2018-06-22T11:17:35.546Z,6.83
2018-06-22T11:20:05.014Z,7.47
2018-06-22T11:22:34.372Z,11.27
2018-06-22T11:25:03.662Z,6.27
2018-06-22T11:27:32.935Z,8.00
2018-06-22T11:30:02.285Z,2.90
2018-06-22T11:32:31.562Z,6.53
2018-06-22T11:35:00.831Z,8.83
2018-06-22T11:37:30.101Z,7.97
2018-06-22T11:39:59.389Z,6.03
2018-06-22T11:42:28.729Z,9.27
2018-06-22T11:44:58.038Z,6.00
2018-06-22T11:47:27.329Z,6.63
2018-06-22T11:49:56.618Z,6.27
2018-06-22T11:52:25.883Z,3.63
2018-06-22T11:54:55.298Z,4.43
2018-06-22T11:57:24.629Z,6.40
2018-06-22T11:59:53.916Z,6.27
2018-06-22T12:02:23.195Z,5.90
2018-06-22T12:04:52.486Z,7.47
2018-06-22T12:07:21.807Z,3.50
2018-06-22T12:09:51.193Z,9.27
2018-06-22T12:12:20.484Z,8.73
2018-06-22T12:14:49.753Z,6.53
2018-06-22T12:17:19.014Z,8.03
2018-06-22T12:19:48.330Z,7.20
2018-06-22T12:22:17.594Z,4.70
2018-06-22T12:24:46.914Z,9.00
2018-06-22T12:27:16.204Z,7.23
2018-06-22T12:29:45.498Z,6.80
2018-06-22T12:32:14.790Z,10.30
2018-06-22T12:34:44.089Z,6.73
2018-06-22T12:37:13.379Z,5.83
2018-06-22T12:39:42.740Z,8.93
2018-06-22T12:42:12.077Z,9.00
2018-06-22T12:44:41.377Z,3.80
2018-06-22T12:47:10.703Z,2.87
2018-06-22T12:49:40.208Z,4.27
2018-06-22T12:52:09.554Z,3.23
2018-06-22T12:54:38.862Z,3.67
2018-06-22T12:57:08.220Z,2.33
2018-06-22T12:59:37.614Z,7.77
2018-06-22T13:02:07.324Z,5.60
2018-06-22T13:04:36.717Z,6.00
2018-06-22T13:07:06.335Z,5.50
2018-06-22T13:09:35.699Z,5.93
2018-06-22T13:12:05.073Z,5.77
2018-06-22T13:14:34.419Z,5.40
2018-06-22T13:17:03.782Z,6.47
2018-06-22T13:19:33.185Z,5.67
2018-06-22T13:22:02.552Z,9.73
2018-06-22T13:24:31.946Z,4.33
2018-06-22T13:27:01.346Z,4.53
2018-06-22T13:29:30.635Z,2.97
2018-06-22T13:31:59.984Z,3.90
2018-06-22T13:34:29.362Z,4.27
2018-06-22T13:36:58.679Z,6.97
2018-06-22T13:39:27.981Z,6.93
2018-06-22T13:41:57.350Z,8.10
2018-06-22T13:44:26.682Z,10.53
2018-06-22T13:46:56.025Z,6.57
2018-06-22T13:49:25.396Z,3.87
2018-06-22T13:51:54.692Z,7.37
2018-06-22T13:54:23.999Z,3.90
2018-06-22T13:56:53.434Z,6.90
2018-06-22T13:59:22.731Z,4.23
2018-06-22T14:01:52.040Z,5.43
2018-06-22T14:04:26.657Z,8.03
2018-06-22T14:06:56.835Z,3.13
2018-06-22T14:09:26.431Z,3.23
2018-06-22T14:11:55.732Z,5.57
2018-06-22T14:14:25.014Z,2.80
2018-06-22T14:16:54.386Z,2.53
2018-06-22T14:19:23.699Z,6.50
2018-06-22T14:21:52.970Z,3.27
2018-06-22T14:24:22.298Z,5.83
2018-06-22T14:26:51.665Z,6.33
2018-06-22T14:29:20.917Z,5.60
2018-06-22T14:31:50.265Z,4.73
2018-06-22T14:34:19.535Z,5.03
2018-06-22T14:36:48.808Z,10.47
2018-06-22T14:39:18.134Z,6.00
2018-06-22T14:41:47.409Z,6.97
2018-06-22T14:44:16.766Z,4.90
2018-06-22T14:46:46.105Z,9.13
2018-06-22T14:49:15.388Z,4.23
2018-06-22T14:51:44.718Z,4.07
2018-06-22T14:54:19.314Z,9.97
2018-06-22T14:56:53.887Z,9.63
2018-06-22T14:59:28.435Z,3.57
2018-06-22T15:04:07.096Z,5.23
2018-06-22T15:06:41.554Z,7.80
2018-06-22T15:09:11.545Z,10.90
2018-06-22T15:11:40.859Z,6.30
2018-06-22T15:14:10.797Z,5.77
2018-06-22T15:16:40.290Z,4.40
2018-06-22T15:19:09.555Z,4.70
2018-06-22T15:21:38.818Z,4.60
2018-06-22T15:24:08.102Z,6.77
2018-06-22T15:26:37.443Z,5.97
2018-06-22T15:29:06.778Z,6.93
2018-06-22T15:31:36.054Z,7.17
2018-06-22T15:34:10.817Z,8.23
2018-06-22T15:36:45.390Z,3.87
2018-06-22T15:39:19.946Z,6.43
2018-06-22T15:41:54.430Z,9.20
2018-06-22T15:44:29.080Z,7.47
2018-06-22T15:47:03.689Z,4.70
2018-06-22T15:49:38.214Z,7.63
2018-06-22T15:52:12.932Z,7.50
2018-06-22T15:54:47.565Z,4.40
2018-06-22T15:57:16.941Z,6.13
2018-06-22T15:59:46.321Z,3.30
2018-06-22T16:02:20.908Z,6.33
2018-06-22T16:04:50.269Z,5.40
2018-06-22T16:07:19.576Z,10.07
2018-06-22T16:09:54.187Z,14.80
2018-06-22T16:12:29.577Z,10.77
2018-06-22T16:15:04.406Z,8.07
2018-06-22T16:17:39.029Z,6.03
2018-06-22T16:22:15.970Z,13.43
2018-06-22T16:24:50.554Z,10.10
2018-06-22T16:27:19.993Z,8.67
2018-06-22T16:29:49.322Z,12.10
2018-06-22T16:32:18.676Z,9.63
2018-06-22T16:34:47.920Z,7.33
2018-06-22T16:37:17.221Z,6.17
2018-06-22T16:39:46.517Z,8.50
2018-06-22T16:42:15.849Z,6.03
2018-06-22T16:44:45.153Z,2.80
2018-06-22T16:47:14.481Z,3.67
2018-06-22T16:49:43.772Z,4.37
2018-06-22T16:52:13.058Z,6.07
2018-06-22T16:54:42.384Z,4.23
2018-06-22T16:57:11.695Z,6.00
2018-06-22T16:59:41.068Z,9.97
2018-06-22T17:02:10.474Z,4.90
2018-06-22T17:04:39.786Z,8.63
2018-06-22T17:07:14.535Z,8.53
2018-06-22T17:09:49.050Z,4.77
2018-06-22T17:12:24.417Z,4.20
2018-06-22T17:14:59.017Z,9.63
2018-06-22T17:17:33.570Z,7.47
2018-06-22T17:20:02.797Z,9.03
2018-06-22T17:22:32.127Z,7.50
2018-06-22T17:25:01.464Z,8.80
2018-06-22T17:27:30.874Z,6.43
2018-06-22T17:30:00.409Z,8.53
2018-06-22T17:32:29.793Z,4.50
2018-06-22T17:34:59.125Z,4.07
2018-06-22T17:37:28.524Z,5.23
2018-06-22T17:39:57.868Z,2.90
2018-06-22T17:42:27.210Z,15.33
2018-06-22T17:44:56.546Z,3.80
2018-06-22T17:47:25.952Z,5.83
2018-06-22T17:49:55.346Z,9.63
2018-06-22T17:52:24.673Z,7.90
2018-06-22T17:54:54.051Z,3.03
2018-06-22T17:57:23.391Z,6.43
2018-06-22T17:59:58.753Z,6.57
2018-06-22T18:02:33.330Z,7.57
2018-06-22T18:05:09.062Z,4.97
2018-06-22T18:07:43.251Z,7.90
2018-06-22T18:10:18.587Z,5.70
2018-06-22T18:12:49.836Z,10.93
2018-06-22T18:15:19.828Z,6.23
2018-06-22T18:17:49.158Z,11.03
2018-06-22T18:20:18.632Z,5.10
2018-06-22T18:22:47.937Z,10.93
2018-06-22T18:25:17.188Z,8.07
2018-06-22T18:27:46.601Z,9.17
2018-06-22T18:30:16.747Z,6.10
2018-06-22T18:32:46.133Z,3.63
2018-06-22T18:35:16.018Z,8.97
2018-06-22T18:37:45.319Z,9.13
2018-06-22T18:40:14.628Z,10.73
2018-06-22T18:42:43.923Z,10.40
2018-06-22T18:45:13.209Z,6.50
2018-06-22T18:47:42.762Z,6.07
2018-06-22T18:50:12.093Z,11.80
2018-06-22T18:52:46.632Z,12.73
2018-06-22T18:55:21.878Z,11.47
2018-06-22T18:57:56.357Z,7.70
2018-06-22T19:00:30.849Z,8.90
2018-06-22T19:03:05.394Z,6.93
2018-06-22T19:05:34.726Z,9.93
2018-06-22T19:08:04.034Z,12.83
2018-06-22T19:10:33.424Z,12.87
2018-06-22T19:13:02.786Z,11.40
2018-06-22T19:15:32.159Z,21.27
2018-06-22T19:18:01.465Z,14.87
2018-06-22T19:20:30.806Z,10.63
2018-06-22T19:23:00.176Z,8.70
2018-06-22T19:25:29.471Z,15.43
2018-06-22T19:27:58.977Z,12.87
2018-06-22T19:30:28.294Z,10.83
2018-06-22T19:32:57.618Z,14.20
2018-06-22T19:35:26.941Z,11.57
2018-06-22T19:37:56.224Z,11.63
2018-06-22T19:40:25.561Z,7.43
2018-06-22T19:42:54.906Z,14.13
2018-06-22T19:45:29.549Z,12.13
2018-06-22T19:48:04.211Z,10.07
2018-06-22T19:50:38.529Z,7.93
2018-06-22T19:53:13.019Z,17.53
2018-06-22T19:55:42.348Z,20.80
2018-06-22T19:58:11.650Z,13.17
2018-06-22T20:00:41.056Z,12.77
2018-06-22T20:03:10.332Z,16.50
2018-06-22T20:05:39.681Z,12.17
2018-06-22T20:08:08.992Z,14.20
2018-06-22T20:10:38.401Z,13.30
2018-06-22T20:13:07.754Z,14.43
2018-06-22T20:15:37.083Z,5.50
2018-06-22T20:18:06.443Z,11.40
2018-06-22T20:20:35.845Z,9.50
2018-06-22T20:23:05.467Z,13.80
2018-06-22T20:25:40.879Z,10.57
2018-06-22T20:28:12.360Z,9.00
2018-06-22T20:30:41.785Z,12.03
2018-06-22T20:33:11.214Z,9.13
2018-06-22T20:35:45.890Z,5.57
2018-06-22T20:38:23.116Z,11.03
2018-06-22T20:40:57.928Z,14.97
2018-06-22T20:45:34.042Z,8.53
2018-06-22T20:48:08.539Z,7.17
2018-06-22T20:50:38.645Z,12.90
2018-06-22T20:53:08.516Z,8.70
2018-06-22T20:55:37.841Z,9.20
2018-06-22T20:58:07.297Z,8.53
2018-06-22T21:00:36.671Z,10.50
2018-06-22T21:03:06.210Z,12.13
2018-06-22T21:05:35.669Z,13.63
2018-06-22T21:08:05.069Z,20.27
2018-06-22T21:10:34.432Z,10.73
2018-06-22T21:13:03.829Z,15.50
2018-06-22T21:15:33.294Z,15.70
2018-06-22T21:18:03.235Z,11.07
2018-06-22T21:20:32.598Z,12.73
2018-06-22T21:23:01.971Z,10.70
2018-06-22T21:25:31.352Z,13.87
2018-06-22T21:28:05.926Z,14.17
2018-06-22T21:30:40.441Z,15.30
2018-06-22T21:33:15.104Z,7.47
2018-06-22T21:35:49.760Z,23.13
2018-06-22T21:38:24.299Z,13.07
2018-06-22T21:40:53.635Z,16.43
2018-06-22T21:43:22.995Z,13.27
2018-06-22T21:45:52.423Z,16.50
2018-06-22T21:48:21.759Z,11.83
2018-06-22T21:50:51.049Z,15.43
2018-06-22T21:53:20.426Z,15.47
2018-06-22T21:55:49.843Z,6.30
2018-06-22T21:58:19.245Z,14.40
2018-06-22T22:00:49.070Z,34.87
2018-06-22T22:03:18.449Z,18.10
2018-06-22T22:05:47.771Z,21.90
2018-06-22T22:08:17.115Z,18.40
2018-06-22T22:10:51.598Z,25.47
2018-06-22T22:13:20.965Z,16.33
2018-06-22T22:15:50.352Z,24.97
2018-06-22T22:18:19.690Z,14.93
2018-06-22T22:20:49.199Z,21.97
2018-06-22T22:23:18.587Z,14.37
2018-06-22T22:25:48.105Z,14.30
2018-06-22T22:28:17.702Z,19.10
2018-06-22T22:30:47.162Z,17.00
2018-06-22T22:33:16.721Z,20.00
2018-06-22T22:35:46.101Z,18.50
2018-06-22T22:38:15.586Z,11.50
2018-06-22T22:40:44.962Z,21.70
2018-06-22T22:43:14.365Z,16.77
2018-06-22T22:45:43.776Z,11.43
2018-06-22T22:48:13.141Z,9.57
2018-06-22T22:50:42.437Z,26.50
2018-06-22T22:53:11.781Z,27.73
2018-06-22T22:55:41.153Z,17.00
2018-06-22T22:58:10.487Z,18.20
2018-06-22T23:00:39.997Z,22.80
2018-06-22T23:03:09.356Z,13.10
2018-06-22T23:05:38.844Z,19.03
2018-06-22T23:08:08.459Z,13.53
2018-06-22T23:10:37.793Z,20.83
2018-06-22T23:13:07.168Z,34.10
2018-06-22T23:15:36.596Z,22.30
2018-06-22T23:18:06.332Z,23.40
2018-06-22T23:20:35.797Z,20.60
2018-06-22T23:23:16.356Z,25.70
2018-06-22T23:25:45.938Z,18.43
2018-06-22T23:28:15.355Z,16.87
2018-06-22T23:30:44.722Z,17.20
2018-06-22T23:33:14.102Z,24.17
2018-06-22T23:35:43.450Z,17.00
2018-06-22T23:38:12.836Z,26.47
2018-06-22T23:40:42.161Z,28.90
2018-06-22T23:43:11.504Z,14.40
2018-06-22T23:45:40.880Z,24.53
2018-06-22T23:48:11.059Z,16.53
2018-06-22T23:50:40.449Z,26.83
2018-06-22T23:53:16.286Z,24.83
2018-06-22T23:55:45.636Z,13.43
2018-06-22T23:58:14.968Z,32.97
